sensor_id;sensor_type;location;lat;lon;timestamp;P1;durP1;ratioP1;P2;durP2;ratioP2
17592;SDS011;8915;51.760;14.300;2024-02-16T00:00:01;22.07;;;13.20;;
17592;SDS011;8915;51.760;14.300;2024-02-16T00:02:38;24.70;;;14.67;;
17592;SDS011;8915;51.760;14.300;2024-02-16T00:05:05;22.87;;;13.93;;
17592;SDS011;8915;51.760;14.300;2024-02-16T00:07:33;20.87;;;13.13;;
17592;SDS011;8915;51.760;14.300;2024-02-16T00:09:59;22.60;;;13.50;;
17592;SDS011;8915;51.760;14.300;2024-02-16T00:12:25;26.23;;;14.23;;
17592;SDS011;8915;51.760;14.300;2024-02-16T00:14:52;20.83;;;13.10;;
17592;SDS011;8915;51.760;14.300;2024-02-16T00:17:18;26.07;;;13.30;;
17592;SDS011;8915;51.760;14.300;2024-02-16T00:19:46;24.17;;;14.03;;
17592;SDS011;8915;51.760;14.300;2024-02-16T00:22:12;22.63;;;13.67;;
17592;SDS011;8915;51.760;14.300;2024-02-16T00:24:38;20.03;;;12.83;;
17592;SDS011;8915;51.760;14.300;2024-02-16T00:27:05;22.63;;;13.23;;
17592;SDS011;8915;51.760;14.300;2024-02-16T00:29:31;25.63;;;13.97;;
17592;SDS011;8915;51.760;14.300;2024-02-16T00:31:57;24.27;;;13.27;;
17592;SDS011;8915;51.760;14.300;2024-02-16T00:34:25;22.90;;;13.53;;
17592;SDS011;8915;51.760;14.300;2024-02-16T00:36:52;22.03;;;13.70;;
17592;SDS011;8915;51.760;14.300;2024-02-16T00:39:19;21.83;;;14.00;;
17592;SDS011;8915;51.760;14.300;2024-02-16T00:41:46;20.23;;;12.67;;
17592;SDS011;8915;51.760;14.300;2024-02-16T00:44:13;21.63;;;12.80;;
17592;SDS011;8915;51.760;14.300;2024-02-16T00:46:39;22.87;;;13.30;;
17592;SDS011;8915;51.760;14.300;2024-02-16T00:49:06;22.27;;;13.53;;
17592;SDS011;8915;51.760;14.300;2024-02-16T00:51:35;23.63;;;13.60;;
17592;SDS011;8915;51.760;14.300;2024-02-16T00:54:02;21.83;;;13.10;;
17592;SDS011;8915;51.760;14.300;2024-02-16T00:56:29;23.53;;;11.83;;
17592;SDS011;8915;51.760;14.300;2024-02-16T00:58:55;22.13;;;13.17;;
17592;SDS011;8915;51.760;14.300;2024-02-16T01:01:22;21.33;;;12.47;;
17592;SDS011;8915;51.760;14.300;2024-02-16T01:03:49;20.70;;;12.77;;
17592;SDS011;8915;51.760;14.300;2024-02-16T01:06:18;20.33;;;12.80;;
17592;SDS011;8915;51.760;14.300;2024-02-16T01:08:45;24.13;;;12.90;;
17592;SDS011;8915;51.760;14.300;2024-02-16T01:11:13;19.37;;;12.10;;
17592;SDS011;8915;51.760;14.300;2024-02-16T01:13:40;21.43;;;12.87;;
17592;SDS011;8915;51.760;14.300;2024-02-16T01:16:06;24.70;;;13.07;;
17592;SDS011;8915;51.760;14.300;2024-02-16T01:18:33;22.43;;;12.97;;
17592;SDS011;8915;51.760;14.300;2024-02-16T01:21:01;26.63;;;13.17;;
17592;SDS011;8915;51.760;14.300;2024-02-16T01:23:28;20.57;;;12.90;;
17592;SDS011;8915;51.760;14.300;2024-02-16T01:25:54;23.87;;;13.23;;
17592;SDS011;8915;51.760;14.300;2024-02-16T01:28:22;23.23;;;13.43;;
17592;SDS011;8915;51.760;14.300;2024-02-16T01:30:49;23.33;;;13.07;;
17592;SDS011;8915;51.760;14.300;2024-02-16T01:33:15;22.10;;;13.10;;
17592;SDS011;8915;51.760;14.300;2024-02-16T01:35:42;22.77;;;13.73;;
17592;SDS011;8915;51.760;14.300;2024-02-16T01:38:08;21.63;;;12.83;;
17592;SDS011;8915;51.760;14.300;2024-02-16T01:40:35;24.17;;;13.50;;
17592;SDS011;8915;51.760;14.300;2024-02-16T01:43:01;24.03;;;12.53;;
17592;SDS011;8915;51.760;14.300;2024-02-16T01:45:29;27.67;;;14.13;;
17592;SDS011;8915;51.760;14.300;2024-02-16T01:47:55;24.57;;;12.73;;
17592;SDS011;8915;51.760;14.300;2024-02-16T01:50:21;23.93;;;13.17;;
17592;SDS011;8915;51.760;14.300;2024-02-16T01:56:34;23.57;;;13.00;;
17592;SDS011;8915;51.760;14.300;2024-02-16T01:59:01;25.13;;;13.40;;
17592;SDS011;8915;51.760;14.300;2024-02-16T02:01:30;23.57;;;12.43;;
17592;SDS011;8915;51.760;14.300;2024-02-16T02:03:57;24.63;;;13.37;;
17592;SDS011;8915;51.760;14.300;2024-02-16T02:12:58;22.07;;;12.87;;
17592;SDS011;8915;51.760;14.300;2024-02-16T02:15:25;24.17;;;13.33;;
17592;SDS011;8915;51.760;14.300;2024-02-16T02:17:52;25.00;;;13.17;;
17592;SDS011;8915;51.760;14.300;2024-02-16T02:20:19;25.07;;;12.93;;
17592;SDS011;8915;51.760;14.300;2024-02-16T02:22:50;24.57;;;13.40;;
17592;SDS011;8915;51.760;14.300;2024-02-16T02:29:03;25.33;;;12.80;;
17592;SDS011;8915;51.760;14.300;2024-02-16T02:31:30;29.57;;;14.63;;
17592;SDS011;8915;51.760;14.300;2024-02-16T02:33:56;24.90;;;12.93;;
17592;SDS011;8915;51.760;14.300;2024-02-16T02:40:12;24.93;;;12.03;;
17592;SDS011;8915;51.760;14.300;2024-02-16T02:42:39;26.60;;;13.40;;
17592;SDS011;8915;51.760;14.300;2024-02-16T02:45:06;22.03;;;12.43;;
17592;SDS011;8915;51.760;14.300;2024-02-16T02:47:33;26.23;;;13.30;;
17592;SDS011;8915;51.760;14.300;2024-02-16T02:50:00;25.37;;;13.43;;
17592;SDS011;8915;51.760;14.300;2024-02-16T02:52:26;26.17;;;13.77;;
17592;SDS011;8915;51.760;14.300;2024-02-16T02:54:53;22.60;;;13.40;;
17592;SDS011;8915;51.760;14.300;2024-02-16T02:57:20;29.33;;;14.10;;
17592;SDS011;8915;51.760;14.300;2024-02-16T02:59:47;25.60;;;13.33;;
17592;SDS011;8915;51.760;14.300;2024-02-16T03:02:13;25.00;;;14.23;;
17592;SDS011;8915;51.760;14.300;2024-02-16T03:04:39;29.23;;;14.70;;
17592;SDS011;8915;51.760;14.300;2024-02-16T03:07:06;25.73;;;13.50;;
17592;SDS011;8915;51.760;14.300;2024-02-16T03:09:33;29.10;;;13.90;;
17592;SDS011;8915;51.760;14.300;2024-02-16T03:11:59;25.13;;;13.27;;
17592;SDS011;8915;51.760;14.300;2024-02-16T03:14:28;29.83;;;15.10;;
17592;SDS011;8915;51.760;14.300;2024-02-16T03:16:54;35.00;;;15.57;;
17592;SDS011;8915;51.760;14.300;2024-02-16T03:19:21;32.97;;;14.17;;
17592;SDS011;8915;51.760;14.300;2024-02-16T03:21:47;36.53;;;16.17;;
17592;SDS011;8915;51.760;14.300;2024-02-16T03:24:14;32.30;;;16.30;;
17592;SDS011;8915;51.760;14.300;2024-02-16T03:26:40;29.70;;;15.20;;
17592;SDS011;8915;51.760;14.300;2024-02-16T03:29:07;26.07;;;13.60;;
17592;SDS011;8915;51.760;14.300;2024-02-16T03:31:34;29.07;;;15.30;;
17592;SDS011;8915;51.760;14.300;2024-02-16T03:34:01;29.70;;;16.03;;
17592;SDS011;8915;51.760;14.300;2024-02-16T03:36:27;33.60;;;16.27;;
17592;SDS011;8915;51.760;14.300;2024-02-16T03:38:53;33.03;;;14.80;;
17592;SDS011;8915;51.760;14.300;2024-02-16T03:41:20;29.50;;;15.30;;
17592;SDS011;8915;51.760;14.300;2024-02-16T03:43:48;32.93;;;15.50;;
17592;SDS011;8915;51.760;14.300;2024-02-16T03:46:15;32.90;;;15.93;;
17592;SDS011;8915;51.760;14.300;2024-02-16T03:48:43;31.03;;;16.63;;
17592;SDS011;8915;51.760;14.300;2024-02-16T03:51:09;38.93;;;16.60;;
17592;SDS011;8915;51.760;14.300;2024-02-16T03:53:36;28.93;;;14.43;;
17592;SDS011;8915;51.760;14.300;2024-02-16T03:56:02;34.60;;;15.33;;
17592;SDS011;8915;51.760;14.300;2024-02-16T03:58:31;28.50;;;15.70;;
17592;SDS011;8915;51.760;14.300;2024-02-16T04:00:57;29.90;;;15.70;;
17592;SDS011;8915;51.760;14.300;2024-02-16T04:03:24;29.57;;;14.40;;
17592;SDS011;8915;51.760;14.300;2024-02-16T04:05:51;31.93;;;15.37;;
17592;SDS011;8915;51.760;14.300;2024-02-16T04:08:18;31.37;;;15.20;;
17592;SDS011;8915;51.760;14.300;2024-02-16T04:10:44;33.73;;;16.40;;
17592;SDS011;8915;51.760;14.300;2024-02-16T04:13:11;30.90;;;15.10;;
17592;SDS011;8915;51.760;14.300;2024-02-16T04:15:37;28.70;;;15.13;;
17592;SDS011;8915;51.760;14.300;2024-02-16T04:18:04;27.10;;;14.47;;
17592;SDS011;8915;51.760;14.300;2024-02-16T04:20:31;34.47;;;15.93;;
17592;SDS011;8915;51.760;14.300;2024-02-16T04:22:59;31.17;;;15.90;;
17592;SDS011;8915;51.760;14.300;2024-02-16T04:25:26;30.87;;;16.20;;
17592;SDS011;8915;51.760;14.300;2024-02-16T04:27:53;33.37;;;16.87;;
17592;SDS011;8915;51.760;14.300;2024-02-16T04:30:19;32.87;;;16.17;;
17592;SDS011;8915;51.760;14.300;2024-02-16T04:32:46;28.57;;;14.87;;
17592;SDS011;8915;51.760;14.300;2024-02-16T04:35:13;28.40;;;15.47;;
17592;SDS011;8915;51.760;14.300;2024-02-16T04:37:40;31.30;;;16.40;;
17592;SDS011;8915;51.760;14.300;2024-02-16T04:40:08;31.43;;;15.23;;
17592;SDS011;8915;51.760;14.300;2024-02-16T04:42:37;27.83;;;14.97;;
17592;SDS011;8915;51.760;14.300;2024-02-16T04:45:04;30.33;;;15.97;;
17592;SDS011;8915;51.760;14.300;2024-02-16T04:47:31;29.03;;;15.60;;
17592;SDS011;8915;51.760;14.300;2024-02-16T04:49:57;27.67;;;15.43;;
17592;SDS011;8915;51.760;14.300;2024-02-16T04:52:23;29.07;;;14.50;;
17592;SDS011;8915;51.760;14.300;2024-02-16T04:54:50;30.07;;;15.03;;
17592;SDS011;8915;51.760;14.300;2024-02-16T04:57:18;27.00;;;14.60;;
17592;SDS011;8915;51.760;14.300;2024-02-16T04:59:44;29.50;;;15.60;;
17592;SDS011;8915;51.760;14.300;2024-02-16T05:02:10;29.03;;;15.10;;
17592;SDS011;8915;51.760;14.300;2024-02-16T05:04:37;28.93;;;14.43;;
17592;SDS011;8915;51.760;14.300;2024-02-16T05:07:04;28.07;;;15.50;;
17592;SDS011;8915;51.760;14.300;2024-02-16T05:09:31;30.13;;;16.27;;
17592;SDS011;8915;51.760;14.300;2024-02-16T05:11:58;30.83;;;14.97;;
17592;SDS011;8915;51.760;14.300;2024-02-16T05:14:25;28.70;;;15.10;;
17592;SDS011;8915;51.760;14.300;2024-02-16T05:16:52;22.67;;;14.33;;
17592;SDS011;8915;51.760;14.300;2024-02-16T05:19:19;27.97;;;15.00;;
17592;SDS011;8915;51.760;14.300;2024-02-16T05:21:46;30.83;;;15.30;;
17592;SDS011;8915;51.760;14.300;2024-02-16T05:24:13;28.57;;;14.80;;
17592;SDS011;8915;51.760;14.300;2024-02-16T05:26:42;32.43;;;15.77;;
17592;SDS011;8915;51.760;14.300;2024-02-16T05:29:09;31.90;;;16.13;;
17592;SDS011;8915;51.760;14.300;2024-02-16T05:31:36;31.53;;;15.20;;
17592;SDS011;8915;51.760;14.300;2024-02-16T05:34:03;31.80;;;14.33;;
17592;SDS011;8915;51.760;14.300;2024-02-16T05:36:29;31.57;;;15.63;;
17592;SDS011;8915;51.760;14.300;2024-02-16T05:39:00;29.60;;;15.17;;
17592;SDS011;8915;51.760;14.300;2024-02-16T05:41:34;28.13;;;15.40;;
17592;SDS011;8915;51.760;14.300;2024-02-16T05:44:02;31.40;;;15.67;;
17592;SDS011;8915;51.760;14.300;2024-02-16T05:46:28;28.37;;;14.83;;
17592;SDS011;8915;51.760;14.300;2024-02-16T05:48:56;30.10;;;14.40;;
17592;SDS011;8915;51.760;14.300;2024-02-16T05:51:22;30.40;;;15.20;;
17592;SDS011;8915;51.760;14.300;2024-02-16T05:53:49;28.83;;;16.00;;
17592;SDS011;8915;51.760;14.300;2024-02-16T05:56:16;26.07;;;14.97;;
17592;SDS011;8915;51.760;14.300;2024-02-16T05:58:42;28.27;;;14.57;;
17592;SDS011;8915;51.760;14.300;2024-02-16T06:01:09;27.37;;;15.37;;
17592;SDS011;8915;51.760;14.300;2024-02-16T06:03:37;29.30;;;15.40;;
17592;SDS011;8915;51.760;14.300;2024-02-16T06:06:05;27.73;;;15.60;;
17592;SDS011;8915;51.760;14.300;2024-02-16T06:08:33;34.93;;;15.63;;
17592;SDS011;8915;51.760;14.300;2024-02-16T06:10:59;26.77;;;15.53;;
17592;SDS011;8915;51.760;14.300;2024-02-16T06:13:27;28.37;;;14.80;;
17592;SDS011;8915;51.760;14.300;2024-02-16T06:15:54;30.23;;;14.57;;
17592;SDS011;8915;51.760;14.300;2024-02-16T06:18:22;32.63;;;16.00;;
17592;SDS011;8915;51.760;14.300;2024-02-16T06:20:48;31.17;;;16.13;;
17592;SDS011;8915;51.760;14.300;2024-02-16T06:23:16;29.00;;;14.50;;
17592;SDS011;8915;51.760;14.300;2024-02-16T06:25:42;27.93;;;15.30;;
17592;SDS011;8915;51.760;14.300;2024-02-16T06:28:09;29.80;;;15.37;;
17592;SDS011;8915;51.760;14.300;2024-02-16T06:30:35;31.80;;;16.67;;
17592;SDS011;8915;51.760;14.300;2024-02-16T06:33:02;28.33;;;15.87;;
17592;SDS011;8915;51.760;14.300;2024-02-16T06:35:28;28.67;;;15.27;;
17592;SDS011;8915;51.760;14.300;2024-02-16T06:37:55;30.80;;;15.37;;
17592;SDS011;8915;51.760;14.300;2024-02-16T06:40:23;31.13;;;16.33;;
17592;SDS011;8915;51.760;14.300;2024-02-16T06:42:51;27.57;;;15.50;;
17592;SDS011;8915;51.760;14.300;2024-02-16T06:45:17;31.17;;;15.87;;
17592;SDS011;8915;51.760;14.300;2024-02-16T06:47:45;29.77;;;15.70;;
17592;SDS011;8915;51.760;14.300;2024-02-16T06:50:11;32.93;;;16.67;;
17592;SDS011;8915;51.760;14.300;2024-02-16T06:52:38;30.43;;;15.60;;
17592;SDS011;8915;51.760;14.300;2024-02-16T06:55:06;29.50;;;15.20;;
17592;SDS011;8915;51.760;14.300;2024-02-16T06:57:34;33.57;;;16.37;;
17592;SDS011;8915;51.760;14.300;2024-02-16T07:00:04;28.97;;;16.13;;
17592;SDS011;8915;51.760;14.300;2024-02-16T07:02:33;34.87;;;16.77;;
17592;SDS011;8915;51.760;14.300;2024-02-16T07:05:00;35.00;;;17.27;;
17592;SDS011;8915;51.760;14.300;2024-02-16T07:07:26;31.10;;;15.53;;
17592;SDS011;8915;51.760;14.300;2024-02-16T07:09:53;32.37;;;16.17;;
17592;SDS011;8915;51.760;14.300;2024-02-16T07:12:20;37.87;;;17.27;;
17592;SDS011;8915;51.760;14.300;2024-02-16T07:14:48;40.30;;;19.00;;
17592;SDS011;8915;51.760;14.300;2024-02-16T07:17:15;35.00;;;18.47;;
17592;SDS011;8915;51.760;14.300;2024-02-16T07:19:41;37.33;;;18.90;;
17592;SDS011;8915;51.760;14.300;2024-02-16T07:22:08;37.07;;;18.67;;
17592;SDS011;8915;51.760;14.300;2024-02-16T07:24:35;33.97;;;17.93;;
17592;SDS011;8915;51.760;14.300;2024-02-16T07:27:01;37.57;;;19.17;;
17592;SDS011;8915;51.760;14.300;2024-02-16T07:29:27;41.13;;;19.60;;
17592;SDS011;8915;51.760;14.300;2024-02-16T07:31:55;39.77;;;19.70;;
17592;SDS011;8915;51.760;14.300;2024-02-16T07:34:22;42.53;;;21.00;;
17592;SDS011;8915;51.760;14.300;2024-02-16T07:36:48;44.17;;;20.50;;
17592;SDS011;8915;51.760;14.300;2024-02-16T07:39:14;43.30;;;21.07;;
17592;SDS011;8915;51.760;14.300;2024-02-16T07:41:41;50.53;;;21.63;;
17592;SDS011;8915;51.760;14.300;2024-02-16T07:44:07;46.20;;;22.67;;
17592;SDS011;8915;51.760;14.300;2024-02-16T07:46:39;47.60;;;24.00;;
17592;SDS011;8915;51.760;14.300;2024-02-16T07:49:07;53.07;;;25.27;;
17592;SDS011;8915;51.760;14.300;2024-02-16T07:51:35;46.43;;;23.37;;
17592;SDS011;8915;51.760;14.300;2024-02-16T07:54:02;46.47;;;23.87;;
17592;SDS011;8915;51.760;14.300;2024-02-16T07:56:29;59.67;;;25.10;;
17592;SDS011;8915;51.760;14.300;2024-02-16T07:58:55;53.03;;;25.57;;
17592;SDS011;8915;51.760;14.300;2024-02-16T08:01:22;54.47;;;25.67;;
17592;SDS011;8915;51.760;14.300;2024-02-16T08:03:48;50.50;;;25.40;;
17592;SDS011;8915;51.760;14.300;2024-02-16T08:06:16;50.30;;;24.53;;
17592;SDS011;8915;51.760;14.300;2024-02-16T08:08:46;51.53;;;25.07;;
17592;SDS011;8915;51.760;14.300;2024-02-16T08:11:12;46.73;;;25.07;;
17592;SDS011;8915;51.760;14.300;2024-02-16T08:13:39;51.13;;;24.63;;
17592;SDS011;8915;51.760;14.300;2024-02-16T08:16:05;46.97;;;22.63;;
17592;SDS011;8915;51.760;14.300;2024-02-16T08:18:32;42.57;;;22.43;;
17592;SDS011;8915;51.760;14.300;2024-02-16T08:20:58;37.40;;;21.17;;
17592;SDS011;8915;51.760;14.300;2024-02-16T08:23:26;45.67;;;23.40;;
17592;SDS011;8915;51.760;14.300;2024-02-16T08:25:52;40.23;;;21.47;;
17592;SDS011;8915;51.760;14.300;2024-02-16T08:28:19;34.37;;;18.73;;
17592;SDS011;8915;51.760;14.300;2024-02-16T08:30:45;27.50;;;17.90;;
17592;SDS011;8915;51.760;14.300;2024-02-16T08:33:11;29.67;;;17.53;;
17592;SDS011;8915;51.760;14.300;2024-02-16T08:35:38;26.53;;;16.50;;
17592;SDS011;8915;51.760;14.300;2024-02-16T08:38:05;24.50;;;15.37;;
17592;SDS011;8915;51.760;14.300;2024-02-16T08:40:36;21.47;;;13.47;;
17592;SDS011;8915;51.760;14.300;2024-02-16T08:43:03;22.20;;;14.27;;
17592;SDS011;8915;51.760;14.300;2024-02-16T08:45:30;19.27;;;12.77;;
17592;SDS011;8915;51.760;14.300;2024-02-16T08:47:59;22.10;;;12.90;;
17592;SDS011;8915;51.760;14.300;2024-02-16T08:50:27;15.70;;;11.47;;
17592;SDS011;8915;51.760;14.300;2024-02-16T08:52:54;15.13;;;10.13;;
17592;SDS011;8915;51.760;14.300;2024-02-16T08:55:20;14.63;;;10.77;;
17592;SDS011;8915;51.760;14.300;2024-02-16T08:57:49;13.13;;;10.17;;
17592;SDS011;8915;51.760;14.300;2024-02-16T09:00:15;14.57;;;9.23;;
17592;SDS011;8915;51.760;14.300;2024-02-16T09:02:42;14.70;;;9.10;;
17592;SDS011;8915;51.760;14.300;2024-02-16T09:05:10;16.37;;;9.67;;
17592;SDS011;8915;51.760;14.300;2024-02-16T09:07:36;13.60;;;9.17;;
17592;SDS011;8915;51.760;14.300;2024-02-16T09:10:03;11.47;;;8.37;;
17592;SDS011;8915;51.760;14.300;2024-02-16T09:12:30;11.30;;;8.13;;
17592;SDS011;8915;51.760;14.300;2024-02-16T09:14:58;12.07;;;7.80;;
17592;SDS011;8915;51.760;14.300;2024-02-16T09:17:24;11.33;;;7.80;;
17592;SDS011;8915;51.760;14.300;2024-02-16T09:19:51;12.10;;;7.80;;
17592;SDS011;8915;51.760;14.300;2024-02-16T09:22:18;11.00;;;7.73;;
17592;SDS011;8915;51.760;14.300;2024-02-16T09:24:44;12.90;;;8.47;;
17592;SDS011;8915;51.760;14.300;2024-02-16T09:27:12;13.57;;;8.20;;
17592;SDS011;8915;51.760;14.300;2024-02-16T09:29:38;8.80;;;6.60;;
17592;SDS011;8915;51.760;14.300;2024-02-16T09:32:08;11.57;;;8.10;;
17592;SDS011;8915;51.760;14.300;2024-02-16T09:34:35;10.73;;;7.10;;
17592;SDS011;8915;51.760;14.300;2024-02-16T09:37:02;9.47;;;6.33;;
17592;SDS011;8915;51.760;14.300;2024-02-16T09:39:29;11.57;;;7.23;;
17592;SDS011;8915;51.760;14.300;2024-02-16T09:41:55;9.70;;;6.77;;
17592;SDS011;8915;51.760;14.300;2024-02-16T09:44:22;10.83;;;6.83;;
17592;SDS011;8915;51.760;14.300;2024-02-16T09:46:49;10.97;;;6.77;;
17592;SDS011;8915;51.760;14.300;2024-02-16T09:49:19;9.23;;;7.10;;
17592;SDS011;8915;51.760;14.300;2024-02-16T09:51:46;11.30;;;6.63;;
17592;SDS011;8915;51.760;14.300;2024-02-16T09:54:13;9.27;;;6.10;;
17592;SDS011;8915;51.760;14.300;2024-02-16T09:56:40;9.27;;;6.20;;
17592;SDS011;8915;51.760;14.300;2024-02-16T09:59:07;7.67;;;5.70;;
17592;SDS011;8915;51.760;14.300;2024-02-16T10:01:33;9.97;;;5.87;;
17592;SDS011;8915;51.760;14.300;2024-02-16T10:04:05;8.27;;;6.20;;
17592;SDS011;8915;51.760;14.300;2024-02-16T10:06:39;9.23;;;6.10;;
17592;SDS011;8915;51.760;14.300;2024-02-16T10:09:21;8.70;;;5.77;;
17592;SDS011;8915;51.760;14.300;2024-02-16T10:11:48;8.53;;;6.33;;
17592;SDS011;8915;51.760;14.300;2024-02-16T10:14:14;9.87;;;6.27;;
17592;SDS011;8915;51.760;14.300;2024-02-16T10:16:41;8.07;;;5.40;;
17592;SDS011;8915;51.760;14.300;2024-02-16T10:19:07;7.80;;;5.77;;
17592;SDS011;8915;51.760;14.300;2024-02-16T10:21:36;7.50;;;5.87;;
17592;SDS011;8915;51.760;14.300;2024-02-16T10:24:05;7.20;;;5.97;;
17592;SDS011;8915;51.760;14.300;2024-02-16T10:26:33;8.17;;;6.03;;
17592;SDS011;8915;51.760;14.300;2024-02-16T10:29:02;6.80;;;5.33;;
17592;SDS011;8915;51.760;14.300;2024-02-16T10:31:29;8.27;;;5.63;;
17592;SDS011;8915;51.760;14.300;2024-02-16T10:33:58;7.03;;;5.67;;
17592;SDS011;8915;51.760;14.300;2024-02-16T10:36:26;8.30;;;5.30;;
17592;SDS011;8915;51.760;14.300;2024-02-16T10:38:55;7.40;;;5.33;;
17592;SDS011;8915;51.760;14.300;2024-02-16T10:41:23;7.13;;;5.37;;
17592;SDS011;8915;51.760;14.300;2024-02-16T10:43:54;7.27;;;5.23;;
17592;SDS011;8915;51.760;14.300;2024-02-16T10:46:21;7.47;;;5.70;;
17592;SDS011;8915;51.760;14.300;2024-02-16T10:48:48;8.33;;;5.13;;
17592;SDS011;8915;51.760;14.300;2024-02-16T10:51:14;6.70;;;5.10;;
17592;SDS011;8915;51.760;14.300;2024-02-16T10:53:43;6.87;;;5.03;;
17592;SDS011;8915;51.760;14.300;2024-02-16T10:56:13;6.03;;;5.03;;
17592;SDS011;8915;51.760;14.300;2024-02-16T10:58:39;10.50;;;6.30;;
17592;SDS011;8915;51.760;14.300;2024-02-16T11:01:09;5.77;;;5.10;;
17592;SDS011;8915;51.760;14.300;2024-02-16T11:03:37;8.90;;;5.40;;
17592;SDS011;8915;51.760;14.300;2024-02-16T11:06:11;7.07;;;5.30;;
17592;SDS011;8915;51.760;14.300;2024-02-16T11:08:40;7.63;;;5.03;;
17592;SDS011;8915;51.760;14.300;2024-02-16T11:11:07;7.93;;;5.13;;
17592;SDS011;8915;51.760;14.300;2024-02-16T11:13:37;8.47;;;5.73;;
17592;SDS011;8915;51.760;14.300;2024-02-16T11:16:06;6.40;;;5.00;;
17592;SDS011;8915;51.760;14.300;2024-02-16T11:18:37;6.73;;;5.20;;
17592;SDS011;8915;51.760;14.300;2024-02-16T11:21:05;7.17;;;4.83;;
17592;SDS011;8915;51.760;14.300;2024-02-16T11:23:33;7.30;;;5.10;;
17592;SDS011;8915;51.760;14.300;2024-02-16T11:29:21;8.20;;;5.57;;
17592;SDS011;8915;51.760;14.300;2024-02-16T11:31:48;7.90;;;5.67;;
17592;SDS011;8915;51.760;14.300;2024-02-16T11:34:21;6.60;;;5.00;;
17592;SDS011;8915;51.760;14.300;2024-02-16T11:36:48;7.07;;;5.37;;
17592;SDS011;8915;51.760;14.300;2024-02-16T11:39:14;6.20;;;4.60;;
17592;SDS011;8915;51.760;14.300;2024-02-16T11:41:41;7.80;;;5.47;;
17592;SDS011;8915;51.760;14.300;2024-02-16T11:44:08;8.77;;;5.67;;
17592;SDS011;8915;51.760;14.300;2024-02-16T11:46:43;6.60;;;5.20;;
17592;SDS011;8915;51.760;14.300;2024-02-16T11:49:09;8.43;;;5.63;;
17592;SDS011;8915;51.760;14.300;2024-02-16T11:51:36;6.40;;;4.83;;
17592;SDS011;8915;51.760;14.300;2024-02-16T11:54:06;8.53;;;5.07;;
17592;SDS011;8915;51.760;14.300;2024-02-16T11:56:33;5.80;;;4.37;;
17592;SDS011;8915;51.760;14.300;2024-02-16T11:58:59;5.80;;;4.17;;
17592;SDS011;8915;51.760;14.300;2024-02-16T12:01:26;6.93;;;4.73;;
17592;SDS011;8915;51.760;14.300;2024-02-16T12:03:54;6.97;;;4.67;;
17592;SDS011;8915;51.760;14.300;2024-02-16T12:06:20;6.23;;;5.00;;
17592;SDS011;8915;51.760;14.300;2024-02-16T12:08:47;7.03;;;5.20;;
17592;SDS011;8915;51.760;14.300;2024-02-16T12:11:15;7.20;;;4.90;;
17592;SDS011;8915;51.760;14.300;2024-02-16T12:13:41;8.30;;;4.70;;
17592;SDS011;8915;51.760;14.300;2024-02-16T12:16:08;9.13;;;5.93;;
17592;SDS011;8915;51.760;14.300;2024-02-16T12:18:34;7.40;;;5.27;;
17592;SDS011;8915;51.760;14.300;2024-02-16T12:21:02;7.47;;;5.40;;
17592;SDS011;8915;51.760;14.300;2024-02-16T12:23:30;7.17;;;5.17;;
17592;SDS011;8915;51.760;14.300;2024-02-16T12:25:57;5.80;;;4.90;;
17592;SDS011;8915;51.760;14.300;2024-02-16T12:28:24;6.60;;;4.17;;
17592;SDS011;8915;51.760;14.300;2024-02-16T12:30:52;7.10;;;5.13;;
17592;SDS011;8915;51.760;14.300;2024-02-16T12:33:18;7.33;;;5.50;;
17592;SDS011;8915;51.760;14.300;2024-02-16T12:35:51;7.37;;;4.73;;
17592;SDS011;8915;51.760;14.300;2024-02-16T12:38:19;7.60;;;5.00;;
17592;SDS011;8915;51.760;14.300;2024-02-16T12:40:45;6.43;;;4.90;;
17592;SDS011;8915;51.760;14.300;2024-02-16T12:43:12;5.77;;;4.67;;
17592;SDS011;8915;51.760;14.300;2024-02-16T12:45:39;7.03;;;5.30;;
17592;SDS011;8915;51.760;14.300;2024-02-16T12:48:08;5.57;;;4.60;;
17592;SDS011;8915;51.760;14.300;2024-02-16T12:50:35;5.80;;;5.20;;
17592;SDS011;8915;51.760;14.300;2024-02-16T12:53:02;6.60;;;4.87;;
17592;SDS011;8915;51.760;14.300;2024-02-16T12:55:31;7.50;;;5.50;;
17592;SDS011;8915;51.760;14.300;2024-02-16T12:57:57;7.33;;;5.37;;
17592;SDS011;8915;51.760;14.300;2024-02-16T13:00:25;6.57;;;4.73;;
17592;SDS011;8915;51.760;14.300;2024-02-16T13:02:52;7.57;;;5.33;;
17592;SDS011;8915;51.760;14.300;2024-02-16T13:05:18;7.47;;;5.23;;
17592;SDS011;8915;51.760;14.300;2024-02-16T13:07:44;6.23;;;5.07;;
17592;SDS011;8915;51.760;14.300;2024-02-16T13:10:11;8.43;;;4.87;;
17592;SDS011;8915;51.760;14.300;2024-02-16T13:12:38;8.17;;;5.13;;
17592;SDS011;8915;51.760;14.300;2024-02-16T13:15:08;8.13;;;5.20;;
17592;SDS011;8915;51.760;14.300;2024-02-16T13:17:35;7.10;;;5.60;;
17592;SDS011;8915;51.760;14.300;2024-02-16T13:20:01;6.60;;;5.10;;
17592;SDS011;8915;51.760;14.300;2024-02-16T13:22:32;6.23;;;4.57;;
17592;SDS011;8915;51.760;14.300;2024-02-16T13:24:59;11.37;;;5.10;;
17592;SDS011;8915;51.760;14.300;2024-02-16T13:27:25;8.57;;;5.10;;
17592;SDS011;8915;51.760;14.300;2024-02-16T13:29:53;10.33;;;5.73;;
17592;SDS011;8915;51.760;14.300;2024-02-16T13:32:19;6.97;;;5.10;;
17592;SDS011;8915;51.760;14.300;2024-02-16T13:34:46;5.77;;;4.53;;
17592;SDS011;8915;51.760;14.300;2024-02-16T13:37:12;7.37;;;4.87;;
17592;SDS011;8915;51.760;14.300;2024-02-16T13:39:39;6.80;;;5.07;;
17592;SDS011;8915;51.760;14.300;2024-02-16T13:42:05;6.13;;;4.97;;
17592;SDS011;8915;51.760;14.300;2024-02-16T13:44:32;7.60;;;5.27;;
17592;SDS011;8915;51.760;14.300;2024-02-16T13:47:00;7.17;;;5.10;;
17592;SDS011;8915;51.760;14.300;2024-02-16T13:49:26;7.13;;;4.93;;
17592;SDS011;8915;51.760;14.300;2024-02-16T13:51:52;6.83;;;5.60;;
17592;SDS011;8915;51.760;14.300;2024-02-16T13:54:26;7.33;;;5.60;;
17592;SDS011;8915;51.760;14.300;2024-02-16T13:56:52;7.43;;;4.87;;
17592;SDS011;8915;51.760;14.300;2024-02-16T13:59:19;8.47;;;5.77;;
17592;SDS011;8915;51.760;14.300;2024-02-16T14:01:45;7.97;;;5.67;;
17592;SDS011;8915;51.760;14.300;2024-02-16T14:04:14;8.33;;;6.20;;
17592;SDS011;8915;51.760;14.300;2024-02-16T14:06:41;6.30;;;5.13;;
17592;SDS011;8915;51.760;14.300;2024-02-16T14:09:10;8.50;;;5.53;;
17592;SDS011;8915;51.760;14.300;2024-02-16T14:11:39;8.53;;;6.20;;
17592;SDS011;8915;51.760;14.300;2024-02-16T14:14:06;9.50;;;5.40;;
17592;SDS011;8915;51.760;14.300;2024-02-16T14:16:33;6.83;;;4.90;;
17592;SDS011;8915;51.760;14.300;2024-02-16T14:19:00;7.57;;;5.53;;
17592;SDS011;8915;51.760;14.300;2024-02-16T14:21:27;6.33;;;4.93;;
17592;SDS011;8915;51.760;14.300;2024-02-16T14:23:54;6.93;;;4.73;;
17592;SDS011;8915;51.760;14.300;2024-02-16T14:26:20;7.57;;;5.50;;
17592;SDS011;8915;51.760;14.300;2024-02-16T14:28:46;6.27;;;4.53;;
17592;SDS011;8915;51.760;14.300;2024-02-16T14:31:13;8.03;;;5.80;;
17592;SDS011;8915;51.760;14.300;2024-02-16T14:33:41;6.43;;;5.23;;
17592;SDS011;8915;51.760;14.300;2024-02-16T14:36:08;8.07;;;6.07;;
17592;SDS011;8915;51.760;14.300;2024-02-16T14:38:38;9.63;;;6.00;;
17592;SDS011;8915;51.760;14.300;2024-02-16T14:41:04;6.27;;;5.07;;
17592;SDS011;8915;51.760;14.300;2024-02-16T14:43:30;8.07;;;5.80;;
17592;SDS011;8915;51.760;14.300;2024-02-16T14:45:57;7.70;;;5.80;;
17592;SDS011;8915;51.760;14.300;2024-02-16T14:48:24;9.33;;;6.43;;
17592;SDS011;8915;51.760;14.300;2024-02-16T14:50:50;8.90;;;6.03;;